Exchange, Pennsylvania
Current Conditions -  °F | °C
As of 2:53 PM on Friday 28 Nov 2014 (Local Time) from KSEG Reporting Station
Overcast Overcast  
Wind Chill: 27°   Ceiling: 4800
Heat Index: 33°   Visibility: 10mi
Dew Point: 16°   Wind: 7mph
Humidity: 50%   Direction: 290°WNW
Pressure: 30.22"   Gusts: NA
Location:  41.0117°N, 76.6578°W
Report Text: KSEG 281953Z AUTO 29006KT 10SM OVC048 01/M09 A3022 RMK AO2 SLP240 T00061089
Loading
Personal Weather Stations






























Interactive Weather Map New forecast layout! Learn more

10-Day Weather Forecast

Advertisements
Track Severe Weather on mobile